< Typhoon 199510 1995 Season Typhoon 199512 >
Typhoon 199511 (NINA)
General InformationTrack Information on Google MapsDetailed Wind InformationList of All Images || Disaster Info.ResourceGoogle EarthGE AnimationAtom FeedGeoJSON
Detalied Best Track (Time Zone = UTC)
Year Month Day Hour Lat. Long. Pressure (hPa) Wind (kt) Class Image Chart
1995 9 2 12 12.0 129.0 1004 0 2 Image Chart
1995 9 2 18 12.7 127.7 1004 0 2 Image Chart
1995 9 3 00 13.5 126.4 1004 0 2 Image Chart
1995 9 3 06 14.3 125.3 1002 0 2 Image Chart
1995 9 3 12 15.3 124.2 1002 0 2 Image Chart
1995 9 3 18 16.2 123.0 1002 0 2 Image Chart
1995 9 4 00 16.8 121.8 1002 0 2 Image Chart
1995 9 4 06 17.0 120.0 1002 0 2 Image Chart
1995 9 4 12 16.8 118.4 998 35 3 Image Chart
1995 9 4 18 16.5 117.3 998 35 3 Image Chart
1995 9 5 00 16.4 116.5 996 35 3 Image Chart
1995 9 5 06 16.4 115.9 996 35 3 Image Chart
1995 9 5 12 16.6 115.2 996 35 3 Image Chart
1995 9 5 18 17.0 114.5 994 35 3 Image Chart
1995 9 6 00 17.5 114.0 994 35 3 Image Chart
1995 9 6 06 18.2 113.3 994 35 3 Image Chart
1995 9 6 12 18.9 112.5 994 35 3 Image Chart
1995 9 6 18 19.7 111.6 992 40 3 Image Chart
1995 9 7 00 20.6 110.8 994 35 3 Image Chart
1995 9 7 06 21.7 109.8 998 35 3 Image Chart
1995 9 7 12 23.0 108.0 998 35 3 Image Chart
1995 9 7 18 24.4 106.3 1000 0 2 Image Chart
Japan Meteorological Agency Best Track Data | Correction Date : 1996-01-19
< Typhoon 199510 1995 Season Typhoon 199512 >

Help